METAR Data
IDs: Format: Raw Decoded Include TAF

Data at: 2121 UTC 18 Sep 2018

KCRQ 182053Z AUTO 29005KT 10SM CLR 23/16 A2984 RMK AO2 SLP101 T02330161 58017
KCRQ 181953Z AUTO 27007KT 240V300 10SM CLR 23/16 A2986 RMK AO2 SLP108 T02280156
KCRQ 181853Z AUTO 24008KT 10SM CLR 22/16 A2987 RMK AO2 SLP113 T02220156
KCRQ 181753Z AUTO 25007KT 10SM CLR 22/16 A2989 RMK AO2 SLP118 T02170156 10217 20156 58001
KCRQ 181653Z AUTO VRB03KT 10SM CLR 21/15 A2990 RMK AO2 SLP121 T02110150
KCRQ 181553Z AUTO 00000KT 10SM CLR 20/16 A2990 RMK AO2 SLP121 T02000156
KCRQ 181514Z AUTO 11003KT 9SM SCT002 17/16 A2990 RMK AO2 T01670161
KCRQ 181503Z AUTO 00000KT 3SM R24/4500VP6000FT BR BKN002 17/17 A2989 RMK AO2 T01670167
KCRQ 181500Z AUTO 00000KT 1SM R24/3000VP6000FT BR VV002 17/17 A2989 RMK AO2 T01670167
KCRQ 181453Z AUTO 00000KT 1/4SM R24/1000V5000FT FG VV002 16/16 A2989 RMK AO2 SLP120 T01610161 52006
KCRQ 181451Z AUTO 00000KT 1/4SM R24/1000V3000FT FG VV002 16/16 A2989 RMK AO2
KCRQ 181441Z AUTO 00000KT 1/4SM R24/1200VP6000FT FG OVC001 16/16 A2989 RMK AO2 T01610161
KCRQ 181418Z AUTO 00000KT 1SM R24/3500VP6000FT BR VV001 16/16 A2988 RMK AO2 T01560156
KCRQ 181353Z AUTO 00000KT 1/4SM R24/2600V5500FT FG VV001 16/16 A2988 RMK AO2 SLP114 T01560156
KCRQ 181345Z AUTO 05003KT 3/4SM R24/2600VP6000FT BR VV002 16/16 A2988 RMK AO2 T01560156
KCRQ 181337Z AUTO 06003KT 1SM R24/2600VP6000FT BR VV001 16/16 A2987 RMK AO2 T01560156
KCRQ 181318Z AUTO 00000KT 1/4SM R24/1200V2000FT FG VV001 16/16 A2988 RMK AO2 T01610161
KCRQ 181308Z AUTO 00000KT 3/4SM R24/1400VP6000FT BR VV001 16/16 A2988 RMK AO2 T01610161
KCRQ 181303Z AUTO 09003KT 2 1/2SM R24/4000VP6000FT BR OVC001 16/16 A2988 RMK AO2 VIS 1V5 T01610161
KCRQ 181253Z AUTO 00000KT 10SM OVC002 16/14 A2988 RMK AO2 SLP114 T01610144
KCRQ 181236Z AUTO 00000KT 10SM BKN003 16/13 A2987 RMK AO2 T01560133
KCRQ 181206Z AUTO 10003KT 10SM SCT005 16/13 A2987 RMK AO2 T01560133
KCRQ 181153Z AUTO 00000KT 10SM BKN005 16/14 A2987 RMK AO2 SLP111 T01610139 10194 20161 53001
KCRQ 181150Z AUTO 00000KT 10SM BKN005 16/14 A2987 RMK AO2
KCRQ 181115Z AUTO 00000KT 10SM FEW006 16/14 A2986 RMK AO2 T01610139
KCRQ 181053Z AUTO 00000KT 10SM CLR 17/14 A2986 RMK AO2 SLP108 T01670139
KCRQ 180953Z AUTO 00000KT 10SM CLR 17/14 A2987 RMK AO2 SLP111 T01670144
KCRQ 180853Z AUTO 00000KT 10SM SCT009 17/15 A2988 RMK AO2 SLP114 T01720150 58003
KCRQ 180810Z AUTO 00000KT 10SM FEW008 18/16 A2988 RMK AO2 T01780161
KCRQ 180753Z AUTO 00000KT 10SM CLR 18/17 A2988 RMK AO2 SLP116 T01780167 402440150
KCRQ 180653Z AUTO 00000KT 9SM CLR 18/17 A2989 RMK AO2 SLP117 T01830172
KCRQ 180553Z AUTO 00000KT 10SM CLR 19/18 A2989 RMK AO2 SLP117 T01940178 10228 20194 51013
KCRQ 180453Z 00000KT 10SM CLR 20/18 A2988 RMK AO2 SLP115 T02000178
KCRQ 180353Z 00000KT 10SM CLR 20/18 A2986 RMK AO2 SLP110 T02000178
KCRQ 180253Z 29003KT 10SM CLR 21/18 A2985 RMK AO2 SLP105 T02060178 53002
KCRQ 180153Z 27004KT 10SM CLR 21/17 A2984 RMK AO2 SLP101 T02110172
KCRQ 180053Z 26007KT 10SM CLR 22/17 A2984 RMK AO2 SLP102 T02220167
KCRQ 172353Z 26007KT 10SM CLR 23/17 A2984 RMK AO2 SLP103 T02280167 10244 20217 56011
KCRQ 172253Z VRB06KT 10SM CLR 23/17 A2985 RMK AO2 SLP105 T02330167
KCRQ 172153Z VRB06KT 10SM CLR 24/15 A2986 RMK AO2 SLP109 T02390150
KCRQ 172053Z AUTO 26008KT 10SM CLR 24/16 A2988 RMK AO2 SLP114 T02390161 58012
KCRQ 171953Z AUTO 27007KT 10SM CLR 24/16 A2989 RMK AO2 SLP118 T02390161
KCRQ 171853Z AUTO VRB05KT 10SM CLR 23/17 A2990 RMK AO2 SLP123 T02280167
KCRQ 171753Z AUTO 26005KT 10SM CLR 22/17 A2991 RMK AO2 SLP125 T02170167 10222 20150 51005
KCRQ 171653Z AUTO 24005KT 10SM CLR 21/15 A2991 RMK AO2 SLP125 T02110150
KCRQ 171553Z AUTO 00000KT 10SM CLR 21/16 A2990 RMK AO2 SLP122 T02060156
KCRQ 171453Z AUTO 00000KT 10SM CLR 18/16 A2989 RMK AO2 SLP120 T01830156 53006
KCRQ 171353Z AUTO 00000KT 10SM FEW005 16/15 A2989 RMK AO2 SLP117 T01560150
KCRQ 171348Z AUTO 00000KT 10SM FEW003 15/14 A2988 RMK AO2
KCRQ 171341Z AUTO 00000KT 2SM R24/5500VP6000FT BR SCT003 16/16 A2988 RMK AO2 T01560156
KCRQ 171330Z AUTO 00000KT 1SM R24/2400VP6000FT BR VV001 17/17 A2988 RMK AO2 T01670167
KCRQ 171253Z AUTO 00000KT 1/4SM R24/1200V1400FT FG VV001 17/17 A2988 RMK AO2 SLP114 T01670167
KCRQ 171153Z AUTO 00000KT 1/4SM R24/1200V1400FT FG VV001 17/17 A2987 RMK AO2 SLP112 T01720172 10200 20172 56006
KCRQ 171114Z AUTO 00000KT 1/4SM R24/1800VP6000FT FG VV001 17/17 A2987 RMK AO2 T01720172
KCRQ 171110Z AUTO 00000KT 3/4SM R24/2400VP6000FT BR VV002 17/17 A2987 RMK AO2 T01720172
KCRQ 171108Z AUTO 00000KT 1 1/4SM R24/2400VP6000FT BR SCT002 18/17 A2987 RMK AO2 T01780172
KCRQ 171053Z AUTO 00000KT 9SM FEW003 18/16 A2987 RMK AO2 SLP113 T01780156
KCRQ 171046Z AUTO 00000KT 8SM SCT003 18/16 A2987 RMK AO2 T01780161
KCRQ 171025Z AUTO 00000KT 10SM BKN004 18/16 A2988 RMK AO2 T01830156
KCRQ 171016Z AUTO 00000KT 10SM SCT004 18/16 A2988 RMK AO2 T01780156
KCRQ 170953Z AUTO 00000KT 10SM CLR 18/15 A2988 RMK AO2 SLP115 T01830150